Stormwatcher's Retreat Logo




                  Temp     Hi    Low   Out    Dew  Wind  Wind   Wind    Hi    Hi   Wind   Heat    THW   THSW                Rain  Solar   Solar Hi Solar   UV    UV    Hi     Heat    Cool    In     In    In     In     In   In Air          Wind  Wind    ISS   Arc.
  Date    Time     Out   Temp   Temp   Hum    Pt. Speed   Dir    Run Speed   Dir  Chill  Index  Index  Index   Bar    Rain  Rate   Rad.  Energy    Rad.  Index  Dose   UV     D-D     D-D    Temp   Hum    Dew   Heat    EMC Density     ET   Samp   Tx   Recept  Int.
------------------------------------------------------------------------------------------------------------------------------------------------------------------------------------------------------------------------------------------------------------------------
10/19/19 12:10a   53.9   53.9   53.7    84   49.2  18.0   SSW   3.00  31.0   SSW   46.8   53.8   46.7   45.0  29.810  0.00  0.00     0     0.00      0     0.0  0.00   0.0   0.077   0.000   73.0    50   53.3   72.5   9.25  .0732    0.000   211    5    100.0   10 
10/19/19 12:20a   54.0   54.0   53.9    84   49.3  19.0   SSW   3.17  30.0    SW   46.6   53.9   46.5   44.8  29.796  0.00  0.00     0     0.00      0     0.0  0.00   0.0   0.076   0.000   73.0    49   52.7   72.4   9.05  .0732    0.000   211    5    100.0   10 
10/19/19 12:30a   53.9   54.0   53.9    84   49.2  17.0   SSW   2.83  34.0   SSE   47.0   53.8   46.9   45.1  29.784  0.01  0.00     0     0.00      0     0.0  0.00   0.0   0.077   0.000   72.9    49   52.6   72.3   9.05  .0732    0.000   212    5    100.0   10 
10/19/19 12:40a   53.8   53.9   53.8    84   49.1  19.0   SSW   3.17  35.0     S   46.4   53.7   46.3   44.6  29.787  0.01  0.12     0     0.00      0     0.0  0.00   0.0   0.078   0.000   72.9    49   52.6   72.3   9.05  .0732    0.000   212    5    100.0   10 
10/19/19 12:50a   53.7   53.8   53.7    85   49.3  17.0   SSW   2.83  34.0     S   46.8   53.6   46.7   44.9  29.785  0.01  0.09     0     0.00      0     0.0  0.00   0.0   0.078   0.000   72.9    49   52.6   72.3   9.05  .0732    0.000   213    5    100.0   10 
10/19/19  1:00a   53.4   53.7   53.4    85   49.0  12.0   SSW   2.00  22.0     S   48.2   53.3   48.1   46.0  29.770  0.03  0.13     0     0.00      0     0.0  0.00   0.0   0.081   0.000   72.9    49   52.6   72.3   9.05  .0731    0.002   212    5    100.0   10 
10/19/19  1:10a   53.3   53.5   53.3    85   48.9  11.0   SSW   1.83  22.0   SSE   48.6   53.2   48.5   46.4  29.756  0.02  0.32     0     0.00      0     0.0  0.00   0.0   0.081   0.000   72.8    49   52.5   72.1   9.05  .0731    0.000   212    5    100.0   10 
10/19/19  1:20a   53.2   53.3   53.2    86   49.1  11.0   SSW   1.83  25.0   SSW   48.4   53.1   48.3   46.2  29.735  0.02  0.30     0     0.00      0     0.0  0.00   0.0   0.082   0.000   72.8    49   52.5   72.1   9.05  .0731    0.000   212    5    100.0   10 
10/19/19  1:30a   53.6   53.7   53.2    86   49.5  16.0   SSW   2.67  33.0   SSW   47.0   53.5   46.9   45.1  29.716  0.02  0.35     0     0.00      0     0.0  0.00   0.0   0.079   0.000   72.8    49   52.5   72.1   9.05  .0730    0.000   211    5    100.0   10 
10/19/19  1:40a   53.8   53.9   53.6    86   49.7  25.0   SSW   4.17  45.0   SSW   45.2   53.7   45.1   43.7  29.717  0.01  0.18     0     0.00      0     0.0  0.00   0.0   0.078   0.000   72.8    49   52.5   72.1   9.05  .0730    0.000   212    5    100.0   10 
10/19/19  1:50a   53.9   54.0   53.8    86   49.8  22.0   SSW   3.67  45.0    SW   45.9   53.8   45.8   44.3  29.727  0.00  0.05     0     0.00      0     0.0  0.00   0.0   0.077   0.000   72.8    49   52.5   72.1   9.05  .0731    0.000   213    5    100.0   10 
10/19/19  2:00a   54.2   54.2   53.9    86   50.1  24.0   SSW   4.00  38.0    SW   45.8   54.1   45.7   44.3  29.717  0.01  0.05     0     0.00      0     0.0  0.00   0.0   0.075   0.000   72.8    49   52.5   72.1   9.05  .0730    0.002   212    5    100.0   10 
10/19/19  2:10a   54.8   54.8   54.2    87   51.0  25.0   SSW   4.17  40.0    SW   46.3   54.8   46.3   44.9  29.726  0.00  0.00     0     0.00      0     0.0  0.00   0.0   0.071   0.000   72.7    49   52.4   72.0   9.05  .0731    0.000   212    5    100.0   10 
10/19/19  2:20a   55.5   55.5   54.8    87   51.7  24.0   SSW   4.00  37.0     S   47.3   55.5   47.3   45.9  29.734  0.00  0.00     0     0.00      0     0.0  0.00   0.0   0.066   0.000   72.7    49   52.4   72.0   9.05  .0731    0.000   214    5    100.0   10 
10/19/19  2:30a   56.2   56.2   55.5    88   52.7  25.0   SSW   4.17  40.0   SSW   47.9   56.2   47.9   46.6  29.757  0.01  0.00     0     0.00      0     0.0  0.00   0.0   0.061   0.000   72.7    49   52.4   72.0   9.05  .0731    0.000   212    5    100.0   10 
10/19/19  2:40a   56.7   56.8   56.2    88   53.2  20.0    SW   3.33  31.0    SW   49.4   56.7   49.4   47.9  29.773  0.00  0.00     0     0.00      0     0.0  0.00   0.0   0.058   0.000   72.7    49   52.4   72.0   9.05  .0732    0.000   212    5    100.0   10 
10/19/19  2:50a   56.9   56.9   56.6    86   52.8  17.0     W   2.83  25.0     W   50.4   56.8   50.3   48.7  29.780  0.00  0.00     0     0.00      0     0.0  0.00   0.0   0.056   0.000   72.7    49   52.4   72.0   9.05  .0732    0.000   213    5    100.0   10 
10/19/19  3:00a   57.4   57.4   56.9    84   52.6  16.0     W   2.67  22.0     W   51.3   57.3   51.2   49.5  29.783  0.00  0.00     0     0.00      0     0.0  0.00   0.0   0.053   0.000   72.7    49   52.4   72.0   9.05  .0732    0.002   212    5    100.0   10 
10/19/19  3:10a   57.5   57.6   57.4    84   52.7  16.0     W   2.67  23.0     W   51.4   57.4   51.3   49.6  29.791  0.00  0.00     0     0.00      0     0.0  0.00   0.0   0.052   0.000   72.7    49   52.4   72.0   9.05  .0732    0.000   211    5    100.0   10 
10/19/19  3:20a   57.7   57.7   57.3    81   51.9  21.0   WNW   3.50  31.0   WNW   50.4   57.5   50.2   48.7  29.805  0.00  0.00     0     0.00      0     0.0  0.00   0.0   0.051   0.000   72.7    49   52.4   72.0   9.05  .0733    0.000   213    5    100.0   10 
10/19/19  3:30a   57.7   57.9   57.7    79   51.2  19.0   WNW   3.17  29.0   WNW   50.8   57.4   50.5   48.9  29.814  0.00  0.00     0     0.00      0     0.0  0.00   0.0   0.051   0.000   72.6    49   52.3   71.9   9.05  .0733    0.000   211    5    100.0   10 
10/19/19  3:40a   57.2   57.7   57.2    79   50.7  14.0   WNW   2.33  22.0   WNW   51.7   56.9   51.4   49.6  29.822  0.00  0.00     0     0.00      0     0.0  0.00   0.0   0.054   0.000   72.6    49   52.3   71.9   9.05  .0733    0.000   213    5    100.0   10 
10/19/19  3:50a   56.9   57.3   56.9    77   49.8  14.0    NW   2.33  21.0   NNW   51.4   56.5   51.0   49.1  29.829  0.00  0.00     0     0.00      0     0.0  0.00   0.0   0.056   0.000   72.6    49   52.3   71.9   9.05  .0733    0.000   210    5    100.0   10 
10/19/19  4:00a   56.9   56.9   56.8    77   49.8  11.0    NW   1.83  19.0    NW   52.8   56.5   52.4   50.3  29.834  0.00  0.00     0     0.00      0     0.0  0.00   0.0   0.056   0.000   72.6    49   52.3   71.9   9.05  .0734    0.002   212    5    100.0   10 
10/19/19  4:10a   56.9   56.9   56.8    79   50.5  11.0   WNW   1.83  15.0   WNW   52.8   56.6   52.5   50.5  29.834  0.00  0.00     0     0.00      0     0.0  0.00   0.0   0.056   0.000   72.6    49   52.3   71.9   9.05  .0734    0.000   212    5    100.0   10 
10/19/19  4:20a   56.9   56.9   56.8    78   50.1  13.0   WNW   2.17  22.0     W   51.8   56.5   51.4   49.5  29.840  0.00  0.00     0     0.00      0     0.0  0.00   0.0   0.056   0.000   72.6    49   52.3   71.9   9.05  .0734    0.000   214    5    100.0   10 
10/19/19  4:30a   57.0   57.0   56.9    78   50.2  12.0   WNW   2.00  17.0   WNW   52.3   56.6   51.9   49.9  29.839  0.00  0.00     0     0.00      0     0.0  0.00   0.0   0.056   0.000   72.6    49   52.3   71.9   9.05  .0734    0.000   211    5    100.0   10 
10/19/19  4:40a   56.9   57.1   56.8    78   50.1  10.0   WNW   1.67  13.0   WNW   53.4   56.5   53.0   50.9  29.833  0.00  0.00     0     0.00      0     0.0  0.00   0.0   0.056   0.000   72.6    49   52.3   71.9   9.05  .0734    0.000   210    5    100.0   10 
10/19/19  4:50a   56.8   57.0   56.8    77   49.7  12.0   WNW   2.00  21.0     W   52.1   56.4   51.7   49.6  29.833  0.00  0.00     0     0.00      0     0.0  0.00   0.0   0.057   0.000   72.6    49   52.3   71.9   9.05  .0734    0.000   213    5    100.0   10 
10/19/19  5:00a   56.1   56.8   56.1    78   49.3  14.0     W   2.33  23.0     W   50.4   55.7   50.0   48.1  29.850  0.00  0.00     0     0.00      0     0.0  0.00   0.0   0.062   0.000   72.6    49   52.3   71.9   9.05  .0734    0.002   212    5    100.0   10 
10/19/19  5:10a   55.2   56.0   55.2    79   48.8  15.0   WNW   2.50  21.0   WNW   49.1   54.9   48.8   46.9  29.854  0.00  0.00     0     0.00      0     0.0  0.00   0.0   0.068   0.000   72.6    49   52.3   71.9   9.05  .0734    0.000   213    5    100.0   10 
10/19/19  5:20a   55.8   55.8   55.2    78   49.0  14.0     W   2.33  17.0     W   50.1   55.4   49.7   47.8  29.858  0.00  0.00     0     0.00      0     0.0  0.00   0.0   0.064   0.000   72.6    49   52.3   71.9   9.05  .0734    0.000   214    5    100.0   10 
10/19/19  5:30a   56.0   56.0   55.8    79   49.6  12.0   WNW   2.00  17.0     W   51.2   55.6   50.8   48.7  29.860  0.00  0.00     0     0.00      0     0.0  0.00   0.0   0.063   0.000   72.6    49   52.3   71.9   9.05  .0734    0.000   213    5    100.0   10 
10/19/19  5:40a   56.0   56.1   55.9    80   49.9   9.0     W   1.50  12.0     W   53.0   55.7   52.7   50.4  29.862  0.00  0.00     0     0.00      0     0.0  0.00   0.0   0.063   0.000   72.5    49   52.2   71.7   9.05  .0734    0.000   212    5    100.0   10 
10/19/19  5:50a   56.0   56.1   55.9    80   49.9   9.0     W   1.50  12.0     W   53.0   55.7   52.7   50.4  29.866  0.00  0.00     0     0.00      0     0.0  0.00   0.0   0.063   0.000   72.6    49   52.3   71.9   9.05  .0734    0.000   212    5    100.0   10 
10/19/19  6:00a   54.9   56.1   54.9    78   48.2  11.0     W   1.83  17.0     W   50.5   54.5   50.1   48.0  29.874  0.00  0.00     0     0.00      0     0.0  0.00   0.0   0.070   0.000   72.6    49   52.3   71.9   9.05  .0735    0.002   212    5    100.0   10 
10/19/19  6:10a   54.7   54.9   54.6    79   48.3   5.0     N   0.83  11.0   NNW   53.7   54.4   53.4   50.9  29.876  0.00  0.00     0     0.00      0     0.0  0.00   0.0   0.072   0.000   72.5    49   52.2   71.7   9.05  .0735    0.000   213    5    100.0   10 
10/19/19  6:20a   55.0   55.0   54.6    80   48.9   4.0    NW   0.67   8.0    NW   54.6   54.7   54.3   51.8  29.882  0.00  0.00     0     0.00      0     0.0  0.00   0.0   0.069   0.000   72.5    49   52.2   71.7   9.05  .0735    0.000   214    5    100.0   10 
10/19/19  6:30a   55.5   55.5   55.0    81   49.8   7.0    NW   1.17  12.0   WNW   53.8   55.2   53.5   51.0  29.886  0.00  0.00     0     0.00      0     0.0  0.00   0.0   0.066   0.000   72.5    49   52.2   71.7   9.05  .0735    0.000   213    5    100.0   10 
10/19/19  6:40a   56.0   56.0   55.5    81   50.3   9.0   WNW   1.50  12.0   WNW   53.0   55.7   52.7   50.5  29.892  0.00  0.00     0     0.00      0     0.0  0.00   0.0   0.063   0.000   72.5    49   52.2   71.7   9.05  .0735    0.000   211    5    100.0   10 
10/19/19  6:50a   56.3   56.3   55.8    77   49.2  13.0   WNW   2.17  17.0   WNW   51.1   55.8   50.6   48.6  29.900  0.00  0.00     0     0.00      0     0.0  0.00   0.0   0.060   0.000   72.5    49   52.2   71.7   9.05  .0735    0.000   212    5    100.0   10 
10/19/19  7:00a   56.5   56.5   56.3    76   49.0  13.0   WNW   2.17  17.0     W   51.3   56.0   50.8   48.8  29.903  0.00  0.00     0     0.00      0     0.0  0.00   0.0   0.059   0.000   72.5    49   52.2   71.7   9.05  .0735    0.002   211    5    100.0   10 
10/19/19  7:10a   56.5   56.6   56.5    75   48.7  12.0   WNW   2.00  16.0   WNW   51.8   56.0   51.3   49.2  29.906  0.00  0.00     0     0.00      0     0.0  0.00   0.0   0.059   0.000   72.5    49   52.2   71.7   9.05  .0736    0.000   211    5    100.0   10 
10/19/19  7:20a   56.6   56.6   56.4    75   48.8  12.0   WNW   2.00  15.0   WNW   51.9   56.1   51.4   49.3  29.909  0.00  0.00     0     0.00      0     0.0  0.00   0.0   0.058   0.000   72.5    49   52.2   71.7   9.05  .0736    0.000   212    5    100.0   10 
10/19/19  7:30a   56.7   56.7   56.5    75   48.9  13.0   WNW   2.17  18.0   WNW   51.5   56.2   51.0   49.0  29.914  0.00  0.00     0     0.00      0     0.0  0.00   0.0   0.058   0.000   72.5    49   52.2   71.7   9.05  .0736    0.000   213    5    100.0   10 
10/19/19  7:40a   56.7   56.8   56.6    74   48.5  14.0   WNW   2.33  19.0     W   51.1   56.1   50.5   48.7  29.919  0.00  0.00     3     0.04      5     0.0  0.00   0.0   0.058   0.000   72.5    49   52.2   71.7   9.05  .0736    0.000   214    5    100.0   10 
10/19/19  7:50a   56.6   56.8   56.5    74   48.4  15.0     W   2.50  19.0     W   50.7   56.0   50.1   48.5  29.924  0.00  0.00    10     0.14     14     0.0  0.00   0.0   0.058   0.000   72.5    49   52.2   71.7   9.05  .0736    0.000   211    5    100.0   10 
10/19/19  8:00a   56.6   56.7   56.6    74   48.4  15.0   WNW   2.50  20.0   WNW   50.7   56.0   50.1   48.6  29.930  0.00  0.00    19     0.27     23     0.0  0.00   0.0   0.058   0.000   72.5    49   52.2   71.7   9.05  .0736    0.003   213    5    100.0   10 
10/19/19  8:10a   56.6   56.6   56.5    74   48.4  14.0   WNW   2.33  19.0   WNW   51.0   56.0   50.4   49.0  29.938  0.00  0.00    28     0.40     33     0.0  0.00   0.0   0.058   0.000   72.6    49   52.3   71.9   9.05  .0736    0.000   212    5    100.0   10 
10/19/19  8:20a   56.6   56.6   56.5    74   48.4  13.0   WNW   2.17  18.0   WNW   51.4   56.0   50.8   49.6  29.941  0.00  0.00    40     0.57     49     0.0  0.00   0.0   0.058   0.000   72.6    49   52.3   71.9   9.05  .0736    0.000   212    5    100.0   10 
10/19/19  8:30a   56.5   56.6   56.4    74   48.3  11.0   WNW   1.83  14.0    NW   52.3   55.9   51.7   50.5  29.944  0.00  0.00    45     0.65     54     0.0  0.00   0.0   0.059   0.000   72.6    49   52.3   71.9   9.05  .0736    0.000   212    5    100.0   10 
10/19/19  8:40a   56.5   56.5   56.4    74   48.3  11.0   WNW   1.83  16.0   WNW   52.3   55.9   51.7   52.1  29.953  0.00  0.00    54     0.77     60     0.0  0.00   0.0   0.059   0.000   72.6    49   52.3   71.9   9.05  .0737    0.000   214    5    100.0   10 
10/19/19  8:50a   56.4   56.6   56.4    74   48.2  12.0   WNW   2.00  16.0   WNW   51.6   55.8   51.0   52.0  29.959  0.00  0.00    70     1.00     83     0.0  0.00   0.0   0.060   0.000   72.5    49   52.2   71.7   9.05  .0737    0.000   212    5    100.0   10 
10/19/19  9:00a   56.5   56.5   56.4    74   48.3  14.0   WNW   2.33  18.0     W   50.9   55.9   50.3   51.5  29.961  0.00  0.00    82     1.18     84     0.0  0.00   0.0   0.059   0.000   72.6    49   52.3   71.9   9.05  .0737    0.003   211    5    100.0   10 
10/19/19  9:10a   56.5   56.5   56.4    75   48.7  11.0   WNW   1.83  15.0     W   52.3   56.0   51.8   52.8  29.964  0.00  0.00    73     1.05     83     0.0  0.00   0.0   0.059   0.000   72.6    49   52.3   71.9   9.05  .0737    0.000   212    5    100.0   10 
10/19/19  9:20a   56.4   56.5   56.4    75   48.6  11.0   WNW   1.83  16.0     W   52.2   55.8   51.6   53.4  29.970  0.00  0.00    98     1.40    105     0.0  0.00   0.0   0.060   0.000   72.6    49   52.3   71.9   9.05  .0737    0.000   211    5    100.0   10 
10/19/19  9:30a   56.4   56.5   56.4    75   48.6  12.0   WNW   2.00  15.0     W   51.6   55.8   51.0   54.0  29.971  0.00  0.00   143     2.05    188     0.0  0.00   0.0   0.060   0.000   72.6    49   52.3   71.9   9.05  .0737    0.000   212    5    100.0   10 
10/19/19  9:40a   56.4   56.5   56.4    76   48.9   9.0   WNW   1.50  12.0   WNW   53.4   55.9   52.9   56.9  29.979  0.00  0.00   168     2.41    214     0.0  0.00   0.0   0.060   0.000   72.5    49   52.2   71.7   9.05  .0737    0.000   213    5    100.0   10 
10/19/19  9:50a   56.4   56.4   56.3    76   48.9   8.0    NW   1.33  11.0    NW   54.2   55.9   53.7   55.1  29.977  0.00  0.00    90     1.29    135     0.0  0.00   0.0   0.060   0.000   72.6    49   52.3   71.9   9.05  .0737    0.000   213    5    100.0   10 
10/19/19 10:00a   56.3   56.4   56.3    77   49.2   7.0   WNW   1.17   9.0   WNW   54.8   55.8   54.3   55.5  29.981  0.00  0.00    84     1.20    146     0.0  0.00   0.0   0.060   0.000   72.5    49   52.2   71.7   9.05  .0737    0.004   212    5    100.0   10 
10/19/19 10:10a   56.2   56.3   56.2    78   49.4   7.0   WNW   1.17   8.0   WNW   54.6   55.8   54.2   58.2  29.986  0.00  0.00   174     2.49    188     0.0  0.00   0.0   0.061   0.000   72.5    49   52.2   71.7   9.05  .0738    0.000   213    5    100.0   10 
10/19/19 10:20a   56.1   56.2   56.0    77   49.0   9.0   WNW   1.50  14.0     W   53.1   55.6   52.6   56.3  29.994  0.00  0.00   179     2.57    186     0.0  0.00   0.0   0.062   0.000   72.5    49   52.2   71.7   9.05  .0738    0.000   212    5    100.0   10 
10/19/19 10:30a   56.3   56.4   56.1    76   48.8   8.0   WNW   1.33  10.0   WNW   54.1   55.8   53.6   57.1  30.002  0.00  0.00   172     2.47    178     0.0  0.00   0.0   0.060   0.000   72.5    49   52.2   71.7   9.05  .0738    0.000   211    5    100.0   10 
10/19/19 10:40a   56.4   56.5   56.3    76   48.9  10.0     W   1.67  14.0     W   52.8   55.9   52.3   55.4  30.006  0.00  0.00   168     2.41    186     0.0  0.00   0.0   0.060   0.000   72.5    49   52.2   71.7   9.05  .0738    0.000   213    5    100.0   10 
10/19/19 10:50a   56.6   56.6   56.4    75   48.8  11.0   WNW   1.83  15.0     W   52.4   56.1   51.9   55.5  30.016  0.00  0.00   196     2.81    209     0.0  0.00   0.0   0.058   0.000   72.5    49   52.2   71.7   9.05  .0738    0.000   212    5    100.0   10 
10/19/19 11:00a   56.5   56.6   56.4    75   48.7  10.0   WNW   1.67  14.0   WNW   52.9   56.0   52.4   56.2  30.019  0.00  0.00   205     2.94    211     0.0  0.00   0.0   0.059   0.000   72.5    49   52.2   71.7   9.05  .0738    0.005   210    5    100.0   10 
10/19/19 11:10a   56.5   56.6   56.4    75   48.7   8.0   WNW   1.33  11.0   WNW   54.3   56.0   53.8   58.3  30.026  0.00  0.00   223     3.20    230     0.0  0.00   0.0   0.059   0.000   72.5    49   52.2   71.7   9.05  .0739    0.000   212    5    100.0   10 
10/19/19 11:20a   56.6   56.6   56.4    76   49.1   8.0   WNW   1.33  10.0   WNW   54.4   56.1   53.9   57.9  30.025  0.00  0.00   207     2.97    221     0.0  0.00   0.0   0.058   0.000   72.5    49   52.2   71.7   9.05  .0739    0.000   211    5    100.0   10 
10/19/19 11:30a   56.5   56.6   56.5    76   49.0   8.0   WNW   1.33  11.0   WNW   54.3   56.0   53.8   57.7  30.026  0.00  0.00   208     2.98    225     0.0  0.00   0.0   0.059   0.000   72.5    49   52.2   71.7   9.05  .0739    0.000   212    5    100.0   10 
10/19/19 11:40a   56.4   56.6   56.4    77   49.3   8.0     W   1.33  10.0     W   54.2   55.9   53.7   57.4  30.030  0.00  0.00   203     2.91    223     0.0  0.00   0.0   0.060   0.000   72.5    49   52.2   71.7   9.05  .0739    0.000   212    5    100.0   10 
10/19/19 11:50a   56.5   56.6   56.4    76   49.0  10.0     W   1.67  13.0     W   52.9   56.0   52.4   57.5  30.035  0.00  0.00   284     4.07    308     0.0  0.00   0.0   0.059   0.000   72.5    49   52.2   71.7   9.05  .0739    0.000   211    5    100.0   10 
10/19/19 12:00p   56.3   56.5   56.3    76   48.8  11.0   WNW   1.83  14.0   WNW   52.1   55.8   51.6   56.4  30.039  0.00  0.00   279     4.00    311     0.0  0.00   0.0   0.060   0.000   72.5    49   52.2   71.7   9.05  .0739    0.006   213    5    100.0   10 
10/19/19 12:10p   56.3   56.4   56.3    76   48.8   9.0     W   1.50  11.0   WNW   53.3   55.8   52.8   56.9  30.046  0.00  0.00   235     3.37    264     0.0  0.00   0.0   0.060   0.000   72.5    49   52.2   71.7   9.05  .0739    0.000   214    5    100.0   10 
10/19/19 12:20p   56.5   56.5   56.3    76   49.0  10.0   WNW   1.67  13.0   WNW   52.9   56.0   52.4   56.7  30.053  0.00  0.00   254     3.64    279     0.0  0.00   0.0   0.059   0.000   72.5    49   52.2   71.7   9.05  .0739    0.000   212    5    100.0   10 
10/19/19 12:30p   56.6   56.7   56.5    75   48.8   9.0   WNW   1.50  15.0   WNW   53.7   56.1   53.2   58.0  30.059  0.00  0.00   277     3.97    311     0.0  0.00   0.0   0.058   0.000   72.5    49   52.2   71.7   9.05  .0739    0.000   211    5    100.0   10 
10/19/19 12:40p   56.4   56.7   56.4    75   48.6   7.0   WNW   1.17  10.0   WNW   54.9   55.8   54.3   59.0  30.057  0.00  0.00   256     3.67    272     0.0  0.00   0.0   0.060   0.000   72.5    49   52.2   71.7   9.05  .0739    0.000   214    5    100.0   10 
10/19/19 12:50p   56.5   56.6   56.3    75   48.7   6.0   WNW   1.00   8.0   WNW   55.4   56.0   54.9   61.6  30.060  0.00  0.00   337     4.83    429     0.0  0.00   0.0   0.059   0.000   72.6    49   52.3   71.9   9.05  .0739    0.000   212    5    100.0   10 
10/19/19  1:00p   56.3   56.6   56.3    76   48.8   6.0     W   1.00   8.0   WNW   55.2   55.8   54.7   60.6  30.061  0.00  0.00   301     4.31    436     0.0  0.00   0.0   0.060   0.000   72.6    49   52.3   71.9   9.05  .0739    0.007   213    5    100.0   10 
10/19/19  1:10p   56.4   56.4   56.3    76   48.9   6.0     W   1.00   8.0     W   55.3   55.9   54.8   62.3  30.064  0.00  0.00   378     5.42    483     0.0  0.00   0.0   0.060   0.000   72.6    49   52.3   71.9   9.05  .0739    0.000   211    5    100.0   10 
10/19/19  1:20p   56.5   56.5   56.4    76   49.0   5.0    SW   0.83   7.0   WSW   55.9   56.0   55.4   59.3  30.063  0.00  0.00   220     3.15    322     0.0  0.00   0.0   0.059   0.000   72.7    49   52.4   72.0   9.05  .0739    0.000   213    5    100.0   10 
10/19/19  1:30p   56.6   56.6   56.5    78   49.8   5.0    SW   0.83   9.0   WSW   56.0   56.2   55.6   61.2  30.070  0.00  0.00   288     4.13    362     0.0  0.00   0.0   0.058   0.000   72.6    49   52.3   71.9   9.05  .0739    0.000   213    5    100.0   10 
10/19/19  1:40p   56.7   56.7   56.5    77   49.6   9.0     W   1.50  11.0   WSW   53.8   56.3   53.4   60.3  30.074  0.00  0.00   387     5.55    441     0.0  0.00   0.0   0.058   0.000   72.7    49   52.4   72.0   9.05  .0739    0.000   213    5    100.0   10 
10/19/19  1:50p   57.0   57.0   56.7    76   49.5   9.0     W   1.50  13.0     W   54.1   56.5   53.6   62.5  30.075  0.00  0.00   527     7.55    612     0.0  0.00   0.0   0.056   0.000   72.7    49   52.4   72.0   9.05  .0739    0.000   210    5    100.0   10 
10/19/19  2:00p   56.8   56.9   56.7    75   49.0   9.0     W   1.50  11.0     W   53.9   56.3   53.4   58.6  30.077  0.00  0.00   298     4.27    596     0.0  0.00   0.0   0.057   0.000   72.7    49   52.4   72.0   9.05  .0739    0.008   212    5    100.0   10 
10/19/19  2:10p   56.8   56.9   56.7    76   49.3   9.0     W   1.50  11.0     W   53.9   56.3   53.4   60.5  30.077  0.00  0.00   393     5.63    492     0.0  0.00   0.0   0.057   0.000   72.8    49   52.5   72.1   9.05  .0739    0.000   213    5    100.0   10 
10/19/19  2:20p   56.8   56.9   56.8    76   49.3   7.0     W   1.17   9.0   WNW   55.4   56.3   54.9   62.3  30.078  0.00  0.00   376     5.39    471     0.0  0.00   0.0   0.057   0.000   72.9    49   52.6   72.3   9.05  .0739    0.000   213    5    100.0   10 
10/19/19  2:30p   56.7   56.9   56.7    77   49.6   7.0     W   1.17   9.0     W   55.2   56.3   54.8   61.0  30.079  0.00  0.00   318     4.56    345     0.0  0.00   0.0   0.058   0.000   72.9    49   52.6   72.3   9.05  .0739    0.000   213    5    100.0   10 
10/19/19  2:40p   56.7   56.8   56.7    77   49.6   7.0     W   1.17   8.0     W   55.2   56.3   54.8   59.2  30.078  0.00  0.00   235     3.37    269     0.0  0.00   0.0   0.058   0.000   72.8    49   52.5   72.1   9.05  .0739    0.000   212    5    100.0   10 
10/19/19  2:50p   56.7   56.8   56.6    76   49.2   7.0     W   1.17   9.0     W   55.2   56.2   54.7   60.1  30.083  0.00  0.00   273     3.91    376     0.0  0.00   0.0   0.058   0.000   72.8    49   52.5   72.1   9.05  .0739    0.000   212    5    100.0   10 
10/19/19  3:00p   56.8   56.8   56.7    76   49.3   8.0     W   1.33  10.0     W   54.7   56.3   54.2   58.7  30.087  0.00  0.00   237     3.40    345     0.0  0.00   0.0   0.057   0.000   72.8    49   52.5   72.1   9.05  .0740    0.008   212    5    100.0   10 
10/19/19  3:10p   56.8   56.9   56.8    77   49.7   8.0     W   1.33  10.0   WNW   54.7   56.4   54.3   59.7  30.089  0.00  0.00   275     3.94    424     0.0  0.00   0.0   0.057   0.000   72.8    49   52.5   72.1   9.05  .0740    0.000   214    5    100.0   10 
10/19/19  3:20p   56.6   56.8   56.6    77   49.5   8.0     W   1.33  10.0   WSW   54.4   56.2   54.0   57.5  30.090  0.00  0.00   194     2.78    225     0.0  0.00   0.0   0.058   0.000   72.9    49   52.6   72.3   9.05  .0739    0.000   212    5    100.0   10 
10/19/19  3:30p   56.5   56.6   56.5    77   49.4   7.0     W   1.17   9.0     W   55.0   56.1   54.6   57.4  30.092  0.00  0.00   158     2.26    181     0.0  0.00   0.0   0.059   0.000   72.9    49   52.6   72.3   9.05  .0739    0.000   213    5    100.0   10 
10/19/19  3:40p   56.6   56.7   56.6    78   49.8   6.0   WSW   1.00  10.0   WSW   55.5   56.2   55.1   57.8  30.095  0.00  0.00   152     2.18    165     0.0  0.00   0.0   0.058   0.000   72.9    49   52.6   72.3   9.05  .0740    0.000   213    5    100.0   10 
10/19/19  3:50p   56.4   56.6   56.3    78   49.6   6.0   WSW   1.00   9.0   WSW   55.3   56.0   54.9   57.6  30.100  0.00  0.00   147     2.11    171     0.0  0.00   0.0   0.060   0.000   72.8    49   52.5   72.1   9.05  .0740    0.000   212    5    100.0   10 
10/19/19  4:00p   56.3   56.4   56.3    79   49.9   6.0    SW   1.00   9.0    SW   55.2   55.9   54.8   57.2  30.104  0.00  0.00   135     1.94    169     0.0  0.00   0.0   0.060   0.000   72.9    50   53.2   72.4   9.25  .0740    0.005   214    5    100.0   10 
10/19/19  4:10p   56.4   56.4   56.3    80   50.3   5.0    SW   0.83   9.0    SW   55.7   56.1   55.4   58.6  30.109  0.00  0.00   157     2.25    179     0.0  0.00   0.0   0.060   0.000   72.8    50   53.1   72.2   9.25  .0740    0.000   211    5    100.0   10 
10/19/19  4:20p   55.9   56.5   55.9    79   49.5   5.0     W   0.83   8.0   WSW   55.2   55.5   54.8   58.5  30.110  0.00  0.00   170     2.44    199     0.0  0.00   0.0   0.063   0.000   72.8    50   53.1   72.2   9.25  .0740    0.000   212    5    100.0   10 
10/19/19  4:30p   55.5   56.0   55.5    79   49.1   3.0   WNW   0.50   7.0   WNW   55.5   55.2   55.2   58.4  30.108  0.00  0.00   151     2.16    178     0.0  0.00   0.0   0.066   0.000   72.8    50   53.1   72.2   9.25  .0740    0.000   214    5    100.0   10 
10/19/19  4:40p   55.5   55.5   55.4    79   49.1   4.0   WNW   0.67   6.0   WNW   55.2   55.2   54.9   58.1  30.109  0.00  0.00   145     2.08    193     0.0  0.00   0.0   0.066   0.000   72.8    50   53.1   72.2   9.25  .0740    0.000   213    5    100.0   10 
10/19/19  4:50p   55.6   55.6   55.4    79   49.2   3.0     W   0.50   6.0     W   55.6   55.2   55.2   57.9  30.106  0.00  0.00   128     1.83    163     0.0  0.00   0.0   0.065   0.000   72.8    50   53.1   72.2   9.25  .0740    0.000   212    5    100.0   10 
10/19/19  5:00p   56.2   56.2   55.6    80   50.1   3.0     W   0.50   7.0     W   56.2   55.9   55.9   58.7  30.106  0.00  0.00   126     1.81    148     0.0  0.00   0.0   0.061   0.000   72.8    50   53.1   72.2   9.25  .0740    0.004   213    5    100.0   10 
10/19/19  5:10p   56.2   56.3   56.2    80   50.1   3.0   WSW   0.50   7.0     W   56.2   55.9   55.9   58.7  30.106  0.00  0.00   122     1.75    142     0.0  0.00   0.0   0.061   0.000   72.8    50   53.1   72.2   9.25  .0740    0.000   210    5    100.0   10 
10/19/19  5:20p   56.2   56.3   56.1    80   50.1   4.0    SW   0.67   6.0     W   56.0   55.9   55.7   57.2  30.109  0.00  0.00    83     1.19     98     0.0  0.00   0.0   0.061   0.000   72.8    50   53.1   72.2   9.25  .0740    0.000   211    5    100.0   10 
10/19/19  5:30p   56.1   56.2   56.1    81   50.3   4.0    SW   0.67   8.0   WSW   55.9   55.8   55.6   55.3  30.112  0.00  0.00    39     0.56     56     0.0  0.00   0.0   0.062   0.000   72.8    50   53.1   72.2   9.25  .0740    0.000   213    5    100.0   10 
10/19/19  5:40p   56.0   56.1   56.0    81   50.3   4.0    SW   0.67   7.0   WSW   55.8   55.7   55.5   54.6  30.110  0.00  0.00    25     0.36     30     0.0  0.00   0.0   0.063   0.000   72.8    50   53.1   72.2   9.25  .0740    0.000   213    5    100.0   10 
10/19/19  5:50p   55.9   56.0   55.9    81   50.2   3.0    SW   0.50   7.0    SW   55.9   55.6   55.6   54.9  30.110  0.00  0.00    28     0.40     35     0.0  0.00   0.0   0.063   0.000   72.7    50   53.0   72.1   9.25  .0740    0.000   213    5    100.0   10 
10/19/19  6:00p   55.8   55.9   55.8    81   50.1   4.0    SW   0.67   8.0   WSW   55.6   55.5   55.3   54.7  30.109  0.00  0.00    29     0.42     37     0.0  0.00   0.0   0.064   0.000   72.7    50   53.0   72.1   9.25  .0740    0.002   214    5    100.0   10 
10/19/19  6:10p   55.8   55.8   55.7    82   50.4   6.0    SW   1.00  10.0   WSW   54.6   55.6   54.4   53.3  30.109  0.00  0.00    19     0.27     21     0.0  0.00   0.0   0.064   0.000   72.7    50   53.0   72.1   9.25  .0740    0.000   213    5    100.0   10 
10/19/19  6:20p   55.6   55.8   55.6    82   50.2   5.0    SW   0.83   9.0    SW   54.8   55.4   54.6   52.4  30.106  0.00  0.00    12     0.17     16     0.0  0.00   0.0   0.065   0.000   72.7    50   53.0   72.1   9.25  .0740    0.000   212    5    100.0   10 
10/19/19  6:30p   55.6   55.6   55.5    82   50.2   6.0    SW   1.00  11.0   SSE   54.3   55.4   54.1   51.6  30.108  0.00  0.00     1     0.01      5     0.0  0.00   0.0   0.065   0.000   72.7    50   53.0   72.1   9.25  .0740    0.000   214    5    100.0   10 
10/19/19  6:40p   55.5   55.6   55.5    82   50.1   5.0    SW   0.83   9.0   WSW   54.7   55.3   54.5   52.0  30.111  0.00  0.00     0     0.00      0     0.0  0.00   0.0   0.066   0.000   72.7    50   53.0   72.1   9.25  .0740    0.000   210    5    100.0   10 
10/19/19  6:50p   55.5   55.6   55.5    82   50.1   5.0    SW   0.83   9.0   WSW   54.7   55.3   54.5   52.0  30.113  0.00  0.00     0     0.00      0     0.0  0.00   0.0   0.066   0.000   72.7    50   53.0   72.1   9.25  .0740    0.000   212    5    100.0   10 
10/19/19  7:00p   55.5   55.6   55.5    82   50.1   5.0    SW   0.83   9.0   WSW   54.7   55.3   54.5   52.0  30.120  0.00  0.00     0     0.00      0     0.0  0.00   0.0   0.066   0.000   72.7    50   53.0   72.1   9.25  .0740    0.001   213    5    100.0   10 
10/19/19  7:10p   55.4   55.5   55.4    83   50.3   5.0    SW   0.83   9.0   WSW   54.6   55.2   54.4   51.9  30.120  0.00  0.00     0     0.00      0     0.0  0.00   0.0   0.067   0.000   72.7    50   53.0   72.1   9.25  .0740    0.000   213    5    100.0   10 
10/19/19  7:20p   55.4   55.4   55.3    83   50.3   5.0    SW   0.83   8.0    SW   54.6   55.2   54.4   51.9  30.116  0.00  0.00     0     0.00      0     0.0  0.00   0.0   0.067   0.000   72.6    50   52.9   71.9   9.25  .0740    0.000   212    5    100.0   10 
10/19/19  7:30p   55.5   55.5   55.4    83   50.4   4.0   SSW   0.67   7.0   SSE   55.2   55.3   55.0   52.5  30.116  0.00  0.00     0     0.00      0     0.0  0.00   0.0   0.066   0.000   72.7    50   53.0   72.1   9.25  .0740    0.000   213    5    100.0   10 
10/19/19  7:40p   55.3   55.5   55.3    83   50.2   3.0     S   0.50   6.0   WNW   55.3   55.1   55.1   52.6  30.118  0.00  0.00     0     0.00      0     0.0  0.00   0.0   0.067   0.000   72.6    50   52.9   71.9   9.25  .0740    0.000   211    5    100.0   10 
10/19/19  7:50p   54.7   55.3   54.7    83   49.6   0.0     S   0.00   2.0   SSW   54.7   54.5   54.5   52.0  30.119  0.00  0.00     0     0.00      0     0.0  0.00   0.0   0.072   0.000   72.7    50   53.0   72.1   9.25  .0740    0.000   212    5    100.0   10 
10/19/19  8:00p   54.2   54.7   54.2    83   49.1   0.0   ---   0.00   0.0   ---   54.2   54.0   54.0   51.5  30.124  0.00  0.00     0     0.00      0     0.0  0.00   0.0   0.075   0.000   72.6    50   52.9   71.9   9.25  .0741    0.001   214    5    100.0   10 
10/19/19  8:10p   54.0   54.2   54.0    83   49.0   0.0   ---   0.00   0.0   ---   54.0   53.8   53.8   51.2  30.124  0.00  0.00     0     0.00      0     0.0  0.00   0.0   0.076   0.000   72.6    50   52.9   71.9   9.25  .0741    0.000   212    5    100.0   10 
10/19/19  8:20p   54.0   54.1   54.0    84   49.3   0.0   SSW   0.00   2.0   SSW   54.0   53.9   53.9   51.4  30.125  0.00  0.00     0     0.00      0     0.0  0.00   0.0   0.076   0.000   72.6    50   52.9   71.9   9.25  .0741    0.000   209    5    100.0   10 
10/19/19  8:30p   54.5   54.5   53.9    84   49.8   2.0   SSW   0.33   6.0    SW   54.5   54.4   54.4   51.9  30.126  0.00  0.00     0     0.00      0     0.0  0.00   0.0   0.073   0.000   72.7    50   53.0   72.1   9.25  .0740    0.000   214    5    100.0   10 
10/19/19  8:40p   54.4   54.7   54.4    83   49.3   3.0     S   0.50   6.0     S   54.4   54.2   54.2   51.7  30.130  0.00  0.00     0     0.00      0     0.0  0.00   0.0   0.074   0.000   72.7    50   53.0   72.1   9.25  .0741    0.000   213    5    100.0   10 
10/19/19  8:50p   53.5   54.4   53.5    82   48.1   1.0   SSW   0.17   5.0   SSW   53.5   53.3   53.3   50.7  30.133  0.00  0.00     0     0.00      0     0.0  0.00   0.0   0.080   0.000   72.6    50   52.9   71.9   9.25  .0741    0.000   212    5    100.0   10 
10/19/19  9:00p   53.1   53.6   53.1    83   48.1   2.0     S   0.33   5.0   SSW   53.1   52.9   52.9   50.3  30.139  0.00  0.00     0     0.00      0     0.0  0.00   0.0   0.083   0.000   72.6    50   52.9   71.9   9.25  .0741    0.001   213    5    100.0   10 
10/19/19  9:10p   53.3   53.3   53.0    83   48.3   1.0     S   0.17   4.0   SSW   53.3   53.1   53.1   50.5  30.138  0.00  0.00     0     0.00      0     0.0  0.00   0.0   0.081   0.000   72.6    50   52.9   71.9   9.25  .0741    0.000   213    5    100.0   10 
10/19/19  9:20p   53.3   53.3   53.2    84   48.6   1.0     S   0.17   4.0    SW   53.3   53.2   53.2   50.6  30.136  0.00  0.00     0     0.00      0     0.0  0.00   0.0   0.081   0.000   72.5    50   52.8   71.8   9.25  .0741    0.000   212    5    100.0   10 
10/19/19  9:30p   53.5   53.6   53.3    84   48.8   1.0     S   0.17   4.0     S   53.5   53.4   53.4   50.8  30.137  0.00  0.00     0     0.00      0     0.0  0.00   0.0   0.080   0.000   72.5    50   52.8   71.8   9.25  .0741    0.000   214    5    100.0   10 
10/19/19  9:40p   53.7   53.7   53.5    84   49.0   1.0   SSW   0.17   5.0   SSW   53.7   53.6   53.6   51.0  30.136  0.00  0.00     0     0.00      0     0.0  0.00   0.0   0.078   0.000   72.4    50   52.7   71.7   9.25  .0741    0.000   211    5    100.0   10 
10/19/19  9:50p   53.6   53.7   53.6    84   48.9   1.0   SSW   0.17   4.0   SSW   53.6   53.5   53.5   50.9  30.140  0.00  0.00     0     0.00      0     0.0  0.00   0.0   0.079   0.000   72.4    50   52.7   71.7   9.25  .0741    0.000   211    5    100.0   10 
10/19/19 10:00p   53.7   53.7   53.6    84   49.0   1.0     S   0.17   4.0   SSE   53.7   53.6   53.6   51.0  30.143  0.00  0.00     0     0.00      0     0.0  0.00   0.0   0.078   0.000   72.3    50   52.6   71.5   9.25  .0742    0.001   213    5    100.0   10 
10/19/19 10:10p   53.7   53.8   53.7    84   49.0   1.0    SE   0.17   3.0    SE   53.7   53.6   53.6   51.0  30.144  0.00  0.00     0     0.00      0     0.0  0.00   0.0   0.078   0.000   72.3    50   52.6   71.5   9.25  .0742    0.000   213    5    100.0   10 
10/19/19 10:20p   53.8   53.9   53.8    84   49.1   1.0   SSE   0.17   3.0     S   53.8   53.7   53.7   51.2  30.140  0.00  0.00     0     0.00      0     0.0  0.00   0.0   0.078   0.000   72.3    50   52.6   71.5   9.25  .0742    0.000   213    5    100.0   10 
10/19/19 10:30p   53.7   53.8   53.7    84   49.0   1.0   ESE   0.17   3.0   SSE   53.7   53.6   53.6   51.0  30.145  0.00  0.00     0     0.00      0     0.0  0.00   0.0   0.078   0.000   72.2    50   52.5   71.4   9.25  .0742    0.000   213    5    100.0   10 
10/19/19 10:40p   53.6   53.8   53.6    83   48.6   1.0   ESE   0.17   3.0    SE   53.6   53.4   53.4   50.8  30.143  0.00  0.00     0     0.00      0     0.0  0.00   0.0   0.079   0.000   72.2    50   52.5   71.4   9.25  .0742    0.000   212    5    100.0   10 
10/19/19 10:50p   53.6   53.7   53.6    83   48.6   1.0   ESE   0.17   3.0   ESE   53.6   53.4   53.4   50.8  30.145  0.00  0.00     0     0.00      0     0.0  0.00   0.0   0.079   0.000   72.2    50   52.5   71.4   9.25  .0742    0.000   213    5    100.0   10 
10/19/19 11:00p   53.8   53.8   53.6    83   48.8   1.0   SSE   0.17   3.0    SE   53.8   53.6   53.6   51.0  30.143  0.00  0.00     0     0.00      0     0.0  0.00   0.0   0.078   0.000   72.1    50   52.4   71.2   9.25  .0742    0.001   211    5    100.0   10 
10/19/19 11:10p   53.9   53.9   53.8    83   48.9   1.0    SE   0.17   3.0    SE   53.9   53.7   53.7   51.1  30.146  0.00  0.00     0     0.00      0     0.0  0.00   0.0   0.077   0.000   72.1    50   52.4   71.2   9.25  .0742    0.000   212    5    100.0   10 
10/19/19 11:20p   53.6   53.9   53.6    83   48.6   1.0     S   0.17   4.0     S   53.6   53.4   53.4   50.8  30.142  0.00  0.00     0     0.00      0     0.0  0.00   0.0   0.079   0.000   72.0    50   52.3   71.1   9.25  .0742    0.000   213    5    100.0   10 
10/19/19 11:30p   53.7   53.7   53.6    83   48.7   2.0    SE   0.33   5.0   SSE   53.7   53.5   53.5   50.9  30.144  0.00  0.00     0     0.00      0     0.0  0.00   0.0   0.078   0.000   72.0    50   52.3   71.1   9.25  .0742    0.000   214    5    100.0   10 
10/19/19 11:40p   53.7   53.8   53.7    83   48.7   1.0     S   0.17   3.0     S   53.7   53.5   53.5   50.9  30.148  0.00  0.00     0     0.00      0     0.0  0.00   0.0   0.078   0.000   72.0    50   52.3   71.1   9.25  .0742    0.000   212    5    100.0   10 
10/19/19 11:50p   53.8   53.9   53.7    82   48.4   1.0     S   0.17   3.0     S   53.8   53.6   53.6   51.0  30.143  0.00  0.00     0     0.00      0     0.0  0.00   0.0   0.078   0.000   71.9    50   52.2   70.9   9.25  .0742    0.000   213    5    100.0   10 
10/20/19 12:00a   53.7   53.8   53.7    82   48.3   1.0    SE   0.17   3.0    SE   53.7   53.5   53.5   50.9  30.144  0.00  0.00     0     0.00      0     0.0  0.00   0.0   0.078   0.000   71.8    50   52.2   70.8   9.25  .0742    0.001   214    5    100.0   10 
10/20/19 12:10a   53.7   53.8   53.7    82   48.3   1.0   SSE   0.17   4.0   SSW   53.7   53.5   53.5   50.9  30.146  0.00  0.00     0     0.00      0     0.0  0.00   0.0   0.078   0.000   71.8    50   52.2   70.8   9.25  .0743    0.000   208    5    100.0   10 
10/20/19 12:20a   53.7   53.8   53.7    82   48.3   1.0     S   0.17   4.0   SSW   53.7   53.5   53.5   50.9  30.143  0.00  0.00     0     0.00      0     0.0  0.00   0.0   0.078   0.000   71.7    50   52.1   70.6   9.25  .0743    0.000   214    5    100.0   10 
10/20/19 12:30a   53.8   53.8   53.7    82   48.4   1.0    SE   0.17   5.0   SSE   53.8   53.6   53.6   51.0  30.141  0.00  0.00     0     0.00      0     0.0  0.00   0.0   0.078   0.000   71.7    50   52.1   70.6   9.25  .0743    0.000   211    5    100.0   10 
10/20/19 12:40a   53.8   53.9   53.8    82   48.4   2.0   SSE   0.33   4.0   SSE   53.8   53.6   53.6   51.0  30.137  0.00  0.00     0     0.00      0     0.0  0.00   0.0   0.078   0.000   71.7    50   52.1   70.6   9.25  .0742    0.000   213    5    100.0   10 
10/20/19 12:50a   53.9   53.9   53.8    82   48.5   2.0     S   0.33   5.0     S   53.9   53.7   53.7   51.1  30.136  0.00  0.00     0     0.00      0     0.0  0.00   0.0   0.077   0.000   71.6    50   52.0   70.5   9.25  .0743    0.000   212    5    100.0   10 
10/20/19  1:00a   53.8   53.9   53.8    82   48.4   2.0     S   0.33   4.0   SSE   53.8   53.6   53.6   51.0  30.133  0.00  0.00     0     0.00      0     0.0  0.00   0.0   0.078   0.000   71.6    50   52.0   70.5   9.25  .0743    0.001   211    5    100.0   10 
10/20/19  1:10a   53.8   54.0   53.8    81   48.1   2.0    SW   0.33   5.0   WSW   53.8   53.5   53.5   50.9  30.132  0.00  0.00     0     0.00      0     0.0  0.00   0.0   0.078   0.000   71.5    50   51.9   70.3   9.25  .0743    0.000   211    5    100.0   10 
10/20/19  1:20a   53.5   53.7   53.5    82   48.1   1.0    SE   0.17   4.0     S   53.5   53.3   53.3   50.7  30.133  0.00  0.00     0     0.00      0     0.0  0.00   0.0   0.080   0.000   71.5    50   51.9   70.3   9.25  .0743    0.000   210    5    100.0   10 
10/20/19  1:30a   53.4   53.6   53.4    82   48.0   2.0   SSW   0.33   6.0   SSW   53.4   53.2   53.2   50.6  30.124  0.00  0.00     0     0.00      0     0.0  0.00   0.0   0.081   0.000   71.4    50   51.8   70.2   9.25  .0743    0.000   211    5    100.0   10 
10/20/19  1:40a   53.3   53.4   53.3    82   47.9   2.0   SSW   0.33   6.0   ESE   53.3   53.1   53.1   50.5  30.123  0.00  0.00     0     0.00      0     0.0  0.00   0.0   0.081   0.000   71.4    50   51.8   70.2   9.25  .0743    0.000   213    5    100.0   10 
10/20/19  1:50a   53.5   53.5   53.3    82   48.1   2.0   SSW   0.33   6.0   ESE   53.5   53.3   53.3   50.7  30.120  0.00  0.00     0     0.00      0     0.0  0.00   0.0   0.080   0.000   71.3    50   51.7   70.1   9.25  .0743    0.000   214    5    100.0   10 
10/20/19  2:00a   53.5   53.6   53.5    82   48.1   2.0   SSW   0.33   6.0   SSE   53.5   53.3   53.3   50.7  30.120  0.00  0.00     0     0.00      0     0.0  0.00   0.0   0.080   0.000   71.3    50   51.7   70.1   9.25  .0743    0.001   213    5    100.0   10 
10/20/19  2:10a   53.5   53.5   53.5    82   48.1   2.0     S   0.33   6.0   SSW   53.5   53.3   53.3   50.7  30.121  0.00  0.00     0     0.00      0     0.0  0.00   0.0   0.080   0.000   71.2    50   51.6   69.9   9.25  .0743    0.000   212    5    100.0   10 
10/20/19  2:20a   53.5   53.6   53.5    82   48.1   2.0   SSW   0.33   6.0   SSE   53.5   53.3   53.3   50.7  30.121  0.00  0.00     0     0.00      0     0.0  0.00   0.0   0.080   0.000   71.2    50   51.6   69.9   9.25  .0743    0.000   211    5    100.0   10 
10/20/19  2:30a   53.7   53.7   53.5    82   48.3   3.0   SSW   0.50   7.0   SSE   53.7   53.5   53.5   50.9  30.114  0.00  0.00     0     0.00      0     0.0  0.00   0.0   0.078   0.000   71.2    50   51.6   69.9   9.25  .0743    0.000   213    5    100.0   10 
10/20/19  2:40a   53.8   53.8   53.6    82   48.4   3.0     S   0.50   6.0   ESE   53.8   53.6   53.6   51.0  30.115  0.00  0.00     0     0.00      0     0.0  0.00   0.0   0.078   0.000   71.1    50   51.5   69.8   9.25  .0743    0.000   207    5    100.0   10 
10/20/19  2:50a   54.1   54.1   53.8    82   48.7   3.0   SSW   0.50   7.0   SSE   54.1   53.9   53.9   51.3  30.119  0.00  0.00     0     0.00      0     0.0  0.00   0.0   0.076   0.000   71.1    50   51.5   69.8   9.25  .0743    0.000   214    5    100.0   10 
10/20/19  3:00a   54.4   54.4   54.1    81   48.7   4.0   SSW   0.67   8.0     S   53.9   54.1   53.6   51.0  30.114  0.00  0.00     0     0.00      0     0.0  0.00   0.0   0.074   0.000   71.0    50   51.4   69.6   9.25  .0743    0.001   208    5    100.0   10 
10/20/19  3:10a   54.6   54.6   54.4    82   49.2   4.0   SSW   0.67   9.0   SSW   54.2   54.4   54.0   51.5  30.109  0.00  0.00     0     0.00      0     0.0  0.00   0.0   0.072   0.000   71.0    50   51.4   69.6   9.25  .0743    0.000   212    5    100.0   10 
10/20/19  3:20a   54.4   54.5   54.2    82   49.0   3.0   SSW   0.50   9.0    SW   54.4   54.2   54.2   51.7  30.107  0.00  0.00     0     0.00      0     0.0  0.00   0.0   0.074   0.000   71.0    50   51.4   69.6   9.25  .0743    0.000   213    5    100.0   10 
10/20/19  3:30a   54.4   54.5   54.3    82   49.0   3.0   SSW   0.50   8.0   SSW   54.4   54.2   54.2   51.7  30.109  0.00  0.00     0     0.00      0     0.0  0.00   0.0   0.074   0.000   71.0    50   51.4   69.6   9.25  .0743    0.000   212    5    100.0   10 
10/20/19  3:40a   54.1   54.3   54.1    82   48.7   3.0   SSW   0.50   6.0     S   54.1   53.9   53.9   51.3  30.106  0.00  0.00     0     0.00      0     0.0  0.00   0.0   0.076   0.000   71.0    50   51.4   69.6   9.25  .0743    0.000   213    5    100.0   10 
10/20/19  3:50a   53.6   54.1   53.6    82   48.2   3.0   SSW   0.50   6.0   SSE   53.6   53.4   53.4   50.8  30.104  0.00  0.00     0     0.00      0     0.0  0.00   0.0   0.079   0.000   70.9    50   51.3   69.5   9.25  .0743    0.000   211    5    100.0   10 
10/20/19  4:00a   53.6   53.7   53.6    82   48.2   2.0   SSE   0.33   6.0     S   53.6   53.4   53.4   50.8  30.097  0.00  0.00     0     0.00      0     0.0  0.00   0.0   0.079   0.000   70.9    50   51.3   69.5   9.25  .0743    0.001   212    5    100.0   10 
10/20/19  4:10a   53.7   53.7   53.6    82   48.3   2.0     S   0.33   5.0   SSW   53.7   53.5   53.5   50.9  30.095  0.00  0.00     0     0.00      0     0.0  0.00   0.0   0.078   0.000   70.9    50   51.3   69.5   9.25  .0743    0.000   213    5    100.0   10 
10/20/19  4:20a   53.7   53.7   53.7    81   48.0   2.0    SE   0.33   7.0     E   53.7   53.4   53.4   50.8  30.087  0.00  0.00     0     0.00      0     0.0  0.00   0.0   0.078   0.000   70.9    50   51.3   69.5   9.25  .0743    0.000   212    5    100.0   10 
10/20/19  4:30a   53.5   53.7   53.5    81   47.8   2.0    SE   0.33   5.0   SSE   53.5   53.2   53.2   50.6  30.084  0.00  0.00     0     0.00      0     0.0  0.00   0.0   0.080   0.000   70.9    50   51.3   69.5   9.25  .0743    0.000   211    5    100.0   10 
10/20/19  4:40a   53.4   53.5   53.3    81   47.7   3.0    SE   0.50   7.0    SE   53.4   53.1   53.1   50.5  30.082  0.00  0.00     0     0.00      0     0.0  0.00   0.0   0.081   0.000   70.9    50   51.3   69.5   9.25  .0742    0.000   212    5    100.0   10 
10/20/19  4:50a   53.4   53.5   53.3    81   47.7   2.0    SE   0.33   7.0   ENE   53.4   53.1   53.1   50.5  30.079  0.00  0.00     0     0.00      0     0.0  0.00   0.0   0.081   0.000   70.8    50   51.2   69.3   9.25  .0743    0.000   214    5    100.0   10 
10/20/19  5:00a   53.5   53.5   53.4    81   47.8   2.0     S   0.33   6.0   ESE   53.5   53.2   53.2   50.6  30.071  0.00  0.00     0     0.00      0     0.0  0.00   0.0   0.080   0.000   70.8    50   51.2   69.3   9.25  .0742    0.001   213    5    100.0   10 
10/20/19  5:10a   53.8   53.8   53.5    81   48.1   3.0   SSW   0.50   8.0   WSW   53.8   53.5   53.5   50.9  30.072  0.00  0.00     0     0.00      0     0.0  0.00   0.0   0.078   0.000   70.8    50   51.2   69.3   9.25  .0742    0.000   213    5    100.0   10 
10/20/19  5:20a   54.1   54.1   53.8    81   48.4   3.0     S   0.50   9.0   SSE   54.1   53.8   53.8   51.2  30.068  0.00  0.00     0     0.00      0     0.0  0.00   0.0   0.076   0.000   70.7    50   51.1   69.2   9.25  .0742    0.000   213    5    100.0   10 
10/20/19  5:30a   54.1   54.2   54.1    81   48.4   2.0   SSW   0.33   9.0   SSE   54.1   53.8   53.8   51.2  30.066  0.00  0.00     0     0.00      0     0.0  0.00   0.0   0.076   0.000   70.7    50   51.1   69.2   9.25  .0742    0.000   212    5    100.0   10 
10/20/19  5:40a   54.2   54.3   54.2    81   48.5   3.0   SSW   0.50   8.0    SE   54.2   53.9   53.9   51.3  30.066  0.00  0.00     0     0.00      0     0.0  0.00   0.0   0.075   0.000   70.7    50   51.1   69.2   9.25  .0742    0.000   213    5    100.0   10 
10/20/19  5:50a   54.2   54.4   54.2    81   48.5   3.0   SSW   0.50   8.0   SSE   54.2   53.9   53.9   51.3  30.072  0.00  0.00     0     0.00      0     0.0  0.00   0.0   0.075   0.000   70.7    50   51.1   69.2   9.25  .0743    0.000   214    5    100.0   10 
10/20/19  6:00a   54.1   54.2   54.0    81   48.4   4.0   SSW   0.67   8.0   SSW   53.6   53.8   53.3   50.7  30.077  0.00  0.00     0     0.00      0     0.0  0.00   0.0   0.076   0.000   70.7    50   51.1   69.2   9.25  .0743    0.001   213    5    100.0   10 
10/20/19  6:10a   54.6   54.6   54.0    81   48.9   5.0   SSW   0.83  11.0   SSW   53.6   54.3   53.3   50.7  30.069  0.00  0.00     0     0.00      0     0.0  0.00   0.0   0.072   0.000   70.7    50   51.1   69.2   9.25  .0743    0.000   211    5    100.0   10 
10/20/19  6:20a   54.5   54.6   54.4    81   48.8   4.0   SSW   0.67  10.0     S   54.1   54.2   53.8   51.2  30.065  0.00  0.00     0     0.00      0     0.0  0.00   0.0   0.073   0.000   70.6    50   51.1   69.1   9.25  .0743    0.000   213    5    100.0   10 
10/20/19  6:30a   54.5   54.5   54.4    80   48.5   4.0   SSW   0.67   9.0     S   54.1   54.2   53.8   51.2  30.072  0.00  0.00     0     0.00      0     0.0  0.00   0.0   0.073   0.000   70.6    50   51.1   69.1   9.25  .0743    0.000   213    5    100.0   10 
10/20/19  6:40a   54.9   54.9   54.4    80   48.8   5.0   SSW   0.83  10.0   SSW   54.0   54.6   53.7   51.1  30.071  0.00  0.00     0     0.00      0     0.0  0.00   0.0   0.070   0.000   70.6    50   51.1   69.1   9.25  .0743    0.000   213    5    100.0   10 
10/20/19  6:50a   55.3   55.3   54.8    79   48.9   5.0   SSW   0.83  12.0     S   54.5   55.0   54.2   51.6  30.070  0.00  0.00     0     0.00      0     0.0  0.00   0.0   0.067   0.000   70.6    50   51.1   69.1   9.25  .0743    0.000   213    5    100.0   10 
10/20/19  7:00a   55.3   55.3   55.2    77   48.2   4.0     S   0.67  10.0   SSE   55.0   54.9   54.6   52.0  30.070  0.00  0.00     0     0.00      0     0.0  0.00   0.0   0.067   0.000   70.5    50   51.0   68.9   9.25  .0743    0.001   213    5    100.0   10 
10/20/19  7:10a   55.3   55.3   55.2    77   48.2   4.0   SSW   0.67   9.0   SSW   55.0   54.9   54.6   52.0  30.070  0.00  0.00     0     0.00      0     0.0  0.00   0.0   0.067   0.000   70.5    50   51.0   68.9   9.25  .0743    0.000   214    5    100.0   10 
10/20/19  7:20a   55.6   55.7   55.2    75   47.8   6.0   SSW   1.00  15.0    SW   54.3   55.0   53.7   51.1  30.077  0.00  0.00     0     0.00      0     0.0  0.00   0.0   0.065   0.000   70.5    50   51.0   68.9   9.25  .0743    0.000   213    5    100.0   10 
10/20/19  7:30a   55.6   55.7   55.6    75   47.8  10.0   SSW   1.67  21.0   SSE   51.8   55.0   51.2   48.9  30.073  0.00  0.00     0     0.00      0     0.0  0.00   0.0   0.065   0.000   70.5    50   51.0   68.9   9.25  .0743    0.000   209    5    100.0   10 
10/20/19  7:40a   55.5   55.6   55.5    74   47.3  12.0   SSW   2.00  21.0   SSW   50.6   54.9   50.0   47.9  30.073  0.00  0.00     0     0.00      0     0.0  0.00   0.0   0.066   0.000   70.5    50   51.0   68.9   9.25  .0743    0.000   214    5    100.0   10 
10/20/19  7:50a   55.0   55.6   55.0    76   47.6  13.0   SSW   2.17  24.0   SSW   49.6   54.5   49.1   47.1  30.073  0.00  0.00     5     0.07      7     0.0  0.00   0.0   0.069   0.000   70.6    50   51.1   69.1   9.25  .0743    0.000   211    5    100.0   10 
10/20/19  8:00a   54.2   55.0   54.2    79   47.8  16.0   SSW   2.67  28.0   SSW   47.6   53.9   47.3   45.6  30.074  0.00  0.00     9     0.13     11     0.0  0.00   0.0   0.075   0.000   70.7    50   51.1   69.2   9.25  .0743    0.002   212    5    100.0   10 
10/20/19  8:10a   53.6   54.2   53.6    80   47.6  14.0   SSW   2.33  24.0   SSE   47.6   53.3   47.3   45.5  30.069  0.00  0.00    14     0.20     18     0.0  0.00   0.0   0.079   0.000   70.7    50   51.1   69.2   9.25  .0743    0.000   213    5    100.0   10 
10/20/19  8:20a   53.4   53.7   53.3    80   47.4  10.0   SSW   1.67  19.0   SSW   49.3   53.1   49.0   47.2  30.066  0.00  0.00    22     0.32     25     0.0  0.00   0.0   0.081   0.000   70.7    50   51.1   69.2   9.25  .0742    0.000   212    5    100.0   10 
10/20/19  8:30a   53.2   53.4   53.1    81   47.5   8.0   SSW   1.33  15.0   SSW   50.3   52.9   50.0   48.0  30.065  0.00  0.00    21     0.30     25     0.0  0.00   0.0   0.082   0.000   70.8    50   51.2   69.3   9.25  .0742    0.000   213    5    100.0   10 
10/20/19  8:40a   53.6   53.6   53.2    80   47.6   7.0   SSW   1.17  17.0     S   51.5   53.3   51.2   50.6  30.054  0.00  0.00    31     0.44     35     0.0  0.00   0.0   0.079   0.000   70.9    50   51.3   69.5   9.25  .0742    0.000   213    5    100.0   10 
10/20/19  8:50a   54.6   54.6   53.6    79   48.2   8.0   SSW   1.33  16.0   SSW   52.0   54.3   51.7   51.8  30.051  0.00  0.00    45     0.65     54     0.0  0.00   0.0   0.072   0.000   70.9    50   51.3   69.5   9.25  .0742    0.000   212    5    100.0   10 
10/20/19  9:00a   55.5   55.5   54.6    76   48.1  10.0   SSW   1.67  29.0   SSW   51.7   55.0   51.2   52.3  30.047  0.00  0.00    71     1.02     84     0.0  0.00   0.0   0.066   0.000   71.0    50   51.4   69.6   9.25  .0741    0.002   209    5    100.0   10 
10/20/19  9:10a   56.1   56.1   55.5    73   47.6  11.0   SSW   1.83  20.0   SSW   51.8   55.4   51.1   52.8  30.045  0.00  0.00    95     1.36    105     0.0  0.00   0.0   0.062   0.000   71.0    50   51.4   69.6   9.25  .0741    0.000   212    5    100.0   10 
10/20/19  9:20a   56.6   56.6   56.1    72   47.7  13.0   SSW   2.17  25.0     S   51.4   55.9   50.7   52.4  30.051  0.00  0.00    98     1.40    107     0.0  0.00   0.0   0.058   0.000   71.1    50   51.5   69.8   9.25  .0741    0.000   211    5    100.0   10 
10/20/19  9:30a   56.3   56.6   56.3    72   47.4  16.0   SSW   2.67  31.0     S   50.0   55.6   49.3   50.7  30.053  0.00  0.00    97     1.39    104     0.0  0.00   0.0   0.060   0.000   71.2    50   51.6   69.9   9.25  .0741    0.000   212    5    100.0   10 
10/20/19  9:40a   56.0   56.3   56.0    73   47.5  15.0   SSW   2.50  30.0   SSW   50.0   55.3   49.3   50.8  30.054  0.00  0.00   102     1.46    107     0.0  0.00   0.0   0.063   0.000   71.2    50   51.6   69.9   9.25  .0741    0.000   212    5    100.0   10 
10/20/19  9:50a   55.6   56.0   55.6    74   47.4  16.0   SSW   2.67  25.0   SSW   49.3   55.0   48.7   50.1  30.050  0.00  0.00   102     1.46    141     0.0  0.00   0.0   0.065   0.000   71.3    50   51.7   70.1   9.25  .0741    0.000   211    5    100.0   10 
10/20/19 10:00a   55.3   55.7   55.3    76   47.9  18.0   SSW   3.00  33.0     S   48.3   54.8   47.8   51.1  30.045  0.00  0.00   196     2.81    272     0.0  0.00   0.0   0.067   0.000   71.3    50   51.7   70.1   9.25  .0741    0.005   212    5    100.0   10 
10/20/19 10:10a   54.8   55.2   54.8    78   48.1  17.0   SSW   2.83  33.0     S   48.1   54.4   47.7   51.6  30.045  0.00  0.00   221     3.17    255     0.0  0.00   0.0   0.071   0.000   71.4    50   51.8   70.2   9.25  .0741    0.000   211    5    100.0   10 
10/20/19 10:20a   54.6   54.8   54.5    79   48.2  16.0   SSW   2.67  27.0    SW   48.1   54.3   47.8   51.1  30.047  0.00  0.00   191     2.74    207     0.0  0.00   0.0   0.072   0.000   71.5    50   51.9   70.3   9.25  .0741    0.000   212    5    100.0   10 
10/20/19 10:30a   54.4   54.6   54.4    80   48.4  17.0   SSW   2.83  27.0   SSW   47.6   54.1   47.3   50.5  30.047  0.00  0.00   196     2.81    227     0.0  0.00   0.0   0.074   0.000   71.6    50   52.0   70.5   9.25  .0740    0.000   212    5    100.0   10 
10/20/19 10:40a   54.1   54.4   54.1    82   48.7  19.0   SSW   3.17  33.0    SW   46.7   53.9   46.5   49.6  30.052  0.00  0.00   207     2.97    258     0.0  0.00   0.0   0.076   0.000   71.6    50   52.0   70.5   9.25  .0741    0.000   214    5    100.0   10 
10/20/19 10:50a   54.2   54.2   54.0    82   48.8  16.0   SSW   2.67  30.0    SW   47.6   54.0   47.4   50.7  30.055  0.00  0.00   208     2.98    262     0.0  0.00   0.0   0.075   0.000   71.6    50   52.0   70.5   9.25  .0741    0.000   213    5    100.0   10 
10/20/19 11:00a   54.6   54.6   54.2    83   49.5  16.0   SSW   2.67  29.0   SSW   48.1   54.4   47.9   51.1  30.053  0.00  0.00   207     2.97    255     0.0  0.00   0.0   0.072   0.000   71.7    50   52.1   70.6   9.25  .0740    0.006   212    5    100.0   10 
10/20/19 11:10a   54.5   54.6   54.5    83   49.4  19.0   SSW   3.17  30.0   SSE   47.2   54.3   47.0   51.1  30.054  0.00  0.00   274     3.93    285     0.0  0.00   0.0   0.073   0.000   71.8    50   52.2   70.8   9.25  .0740    0.000   213    5    100.0   10 
10/20/19 11:20a   54.5   54.5   54.4    84   49.8  19.0   SSW   3.17  33.0   SSE   47.2   54.4   47.1   51.4  30.052  0.00  0.00   293     4.20    362     0.0  0.00   0.0   0.073   0.000   71.8    50   52.2   70.8   9.25  .0740    0.000   212    5    100.0   10 
10/20/19 11:30a   54.5   54.5   54.4    84   49.8  19.0   SSW   3.17  29.0   SSW   47.2   54.4   47.1   50.8  30.060  0.00  0.00   264     3.78    322     0.0  0.00   0.0   0.073   0.000   71.9    50   52.2   70.9   9.25  .0740    0.000   211    5    100.0   10 
10/20/19 11:40a   54.5   54.5   54.5    84   49.8  20.0   SSW   3.33  38.0     S   47.0   54.4   46.9   49.8  30.069  0.01  0.00   227     3.25    250     0.0  0.00   0.0   0.073   0.000   72.0    50   52.3   71.1   9.25  .0740    0.000   212    5    100.0   10 
10/20/19 11:50a   54.6   54.6   54.5    85   50.2  20.0   SSW   3.33  28.0     S   47.1   54.5   47.0   49.7  30.072  0.00  0.00   213     3.05    234     0.0  0.00   0.0   0.072   0.000   72.0    50   52.3   71.1   9.25  .0740    0.000   212    5    100.0   10 
10/20/19 12:00p   54.8   54.8   54.6    85   50.4  20.0   SSW   3.33  30.0     S   47.3   54.7   47.2   49.3  30.075  0.00  0.00   180     2.58    214     0.0  0.00   0.0   0.071   0.000   72.0    50   52.3   71.1   9.25  .0740    0.007   211    5    100.0   10 
10/20/19 12:10p   54.7   54.8   54.7    86   50.6  19.0   SSW   3.17  28.0     S   47.4   54.6   47.3   49.6  30.078  0.00  0.00   193     2.77    232     0.0  0.00   0.0   0.072   0.000   72.1    50   52.4   71.2   9.25  .0740    0.000   211    5    100.0   10 
10/20/19 12:20p   54.8   54.8   54.6    86   50.7  20.0   SSW   3.33  33.0    SW   47.3   54.7   47.2   49.4  30.086  0.00  0.00   193     2.77    230     0.0  0.00   0.0   0.071   0.000   72.1    50   52.4   71.2   9.25  .0741    0.000   213    5    100.0   10 
10/20/19 12:30p   54.9   54.9   54.7    86   50.8  19.0   SSW   3.17  33.0   SSW   47.6   54.8   47.5   49.3  30.089  0.00  0.00   167     2.39    204     0.0  0.00   0.0   0.070   0.000   72.2    50   52.5   71.4   9.25  .0740    0.000   211    5    100.0   10 
10/20/19 12:40p   55.0   55.0   54.9    87   51.2  20.0   SSW   3.33  29.0     S   47.5   55.0   47.5   49.1  30.096  0.00  0.00   156     2.24    188     0.0  0.00   0.0   0.069   0.000   72.2    50   52.5   71.4   9.25  .0741    0.000   214    5    100.0   10 
10/20/19 12:50p   55.1   55.1   55.0    87   51.3  19.0   SSW   3.17  29.0   SSE   47.8   55.1   47.8   49.1  30.093  0.00  0.00   137     1.96    179     0.0  0.00   0.0   0.069   0.000   72.2    50   52.5   71.4   9.25  .0741    0.000   213    5    100.0   10 
10/20/19  1:00p   55.2   55.2   55.1    87   51.4  19.0   SSW   3.17  29.0     S   47.9   55.2   47.9   49.7  30.091  0.00  0.00   168     2.41    234     0.0  0.00   0.0   0.068   0.000   72.2    50   52.5   71.4   9.25  .0740    0.005   213    5    100.0   10 
10/20/19  1:10p   55.3   55.3   55.1    87   51.5  19.0   SSW   3.17  28.0   SSW   48.1   55.3   48.1   49.8  30.093  0.00  0.00   163     2.34    185     0.0  0.00   0.0   0.067   0.000   72.3    50   52.6   71.5   9.25  .0740    0.000   212    5    100.0   10 
10/20/19  1:20p   55.3   55.3   55.3    87   51.5  19.0   SSW   3.17  28.0     S   48.1   55.3   48.1   49.6  30.093  0.00  0.00   154     2.21    171     0.0  0.00   0.0   0.067   0.000   72.3    50   52.6   71.5   9.25  .0740    0.000   212    5    100.0   10 
10/20/19  1:30p   55.4   55.4   55.3    88   51.9  18.0   SSW   3.00  25.0    SW   48.4   55.4   48.4   49.8  30.099  0.00  0.00   146     2.09    172     0.0  0.00   0.0   0.067   0.000   72.3    50   52.6   71.5   9.25  .0740    0.000   212    5    100.0   10 
10/20/19  1:40p   55.3   55.4   55.3    88   51.8  16.0   SSW   2.67  26.0   SSW   48.9   55.3   48.9   49.6  30.105  0.00  0.00   109     1.56    132     0.0  0.00   0.0   0.067   0.000   72.3    50   52.6   71.5   9.25  .0741    0.000   212    5    100.0   10 
10/20/19  1:50p   55.4   55.4   55.3    88   51.9  18.0   SSW   3.00  27.0   SSE   48.4   55.4   48.4   49.4  30.104  0.00  0.00   125     1.79    153     0.0  0.00   0.0   0.067   0.000   72.3    50   52.6   71.5   9.25  .0741    0.000   213    5    100.0   10 
10/20/19  2:00p   55.4   55.5   55.4    88   51.9  19.0   SSW   3.17  26.0   SSE   48.2   55.4   48.2   48.9  30.102  0.00  0.00   109     1.56    132     0.0  0.00   0.0   0.067   0.000   72.4    50   52.7   71.7   9.25  .0740    0.004   213    5    100.0   10 
10/20/19  2:10p   55.5   55.5   55.4    88   52.0  18.0   SSW   3.00  28.0     S   48.6   55.5   48.6   49.8  30.098  0.00  0.00   132     1.89    172     0.0  0.00   0.0   0.066   0.000   72.4    50   52.7   71.7   9.25  .0740    0.000   213    5    100.0   10 
10/20/19  2:20p   55.5   55.5   55.5    88   52.0  18.0   SSW   3.00  30.0   SSE   48.6   55.5   48.6   50.1  30.100  0.00  0.00   147     2.11    179     0.0  0.00   0.0   0.066   0.000   72.4    50   52.7   71.7   9.25  .0740    0.000   212    5    100.0   10 
10/20/19  2:30p   55.6   55.6   55.5    88   52.1  19.0   SSW   3.17  27.0     S   48.4   55.6   48.4   49.5  30.100  0.00  0.00   123     1.76    142     0.0  0.00   0.0   0.065   0.000   72.5    50   52.8   71.8   9.25  .0740    0.000   212    5    100.0   10 
10/20/19  2:40p   55.5   55.6   55.5    89   52.3  19.0   SSW   3.17  26.0     S   48.3   55.6   48.4   50.3  30.099  0.00  0.00   167     2.39    241     0.0  0.00   0.0   0.066   0.000   72.5    50   52.8   71.8   9.25  .0740    0.000   213    5    100.0   10 
10/20/19  2:50p   55.6   55.6   55.5    89   52.4  19.0   SSW   3.17  28.0    SW   48.4   55.7   48.5   49.9  30.103  0.00  0.00   137     1.96    158     0.0  0.00   0.0   0.065   0.000   72.5    50   52.8   71.8   9.25  .0740    0.000   209    5    100.0   10 
10/20/19  3:00p   55.5   55.6   55.5    89   52.3  18.0   SSW   3.00  27.0     S   48.6   55.6   48.7   49.9  30.104  0.00  0.00   126     1.81    153     0.0  0.00   0.0   0.066   0.000   72.5    50   52.8   71.8   9.25  .0740    0.004   212    5    100.0   10 
10/20/19  3:10p   55.5   55.5   55.5    89   52.3  19.0   SSW   3.17  28.0   SSE   48.3   55.6   48.4   49.3  30.105  0.00  0.00   109     1.56    125     0.0  0.00   0.0   0.066   0.000   72.5    50   52.8   71.8   9.25  .0740    0.000   212    5    100.0   10 
10/20/19  3:20p   55.6   55.6   55.5    89   52.4  19.0   SSW   3.17  30.0   SSE   48.4   55.7   48.5   49.6  30.115  0.00  0.00   118     1.69    137     0.0  0.00   0.0   0.065   0.000   72.5    50   52.8   71.8   9.25  .0741    0.000   211    5    100.0   10 
10/20/19  3:30p   55.6   55.6   55.5    89   52.4  17.0   SSW   2.83  23.0   SSW   49.0   55.7   49.1   49.9  30.114  0.00  0.00    97     1.39    141     0.0  0.00   0.0   0.065   0.000   72.5    50   52.8   71.8   9.25  .0741    0.000   212    5    100.0   10 
10/20/19  3:40p   55.7   55.7   55.6    89   52.5  16.0   SSW   2.67  22.0   WSW   49.4   55.8   49.5   50.1  30.123  0.00  0.00    88     1.26     93     0.0  0.00   0.0   0.065   0.000   72.6    50   52.9   71.9   9.25  .0741    0.000   213    5    100.0   10 
10/20/19  3:50p   55.7   55.7   55.6    89   52.5  15.0   SSW   2.50  21.0   SSW   49.7   55.8   49.8   50.9  30.128  0.00  0.00   105     1.51    162     0.0  0.00   0.0   0.065   0.000   72.6    50   52.9   71.9   9.25  .0741    0.000   212    5    100.0   10 
10/20/19  4:00p   55.8   55.8   55.7    89   52.6  14.0   SSW   2.33  19.0     S   50.1   55.9   50.2   51.3  30.129  0.00  0.00   100     1.43    155     0.0  0.00   0.0   0.064   0.000   72.6    50   52.9   71.9   9.25  .0741    0.003   213    5    100.0   10 
10/20/19  4:10p   55.8   55.8   55.7    89   52.6  14.0   SSW   2.33  19.0    SW   50.1   55.9   50.2   51.1  30.129  0.00  0.00    93     1.33    141     0.0  0.00   0.0   0.064   0.000   72.6    50   52.9   71.9   9.25  .0741    0.000   211    5    100.0   10 
10/20/19  4:20p   55.9   55.9   55.8    89   52.7  11.0   SSW   1.83  17.0    SW   51.6   56.0   51.7   54.1  30.128  0.00  0.00   138     1.98    160     0.0  0.00   0.0   0.063   0.000   72.6    50   52.9   71.9   9.25  .0741    0.000   210    5    100.0   10 
10/20/19  4:30p   56.1   56.2   55.9    89   52.9  11.0   SSW   1.83  15.0   SSW   51.8   56.2   51.9   57.1  30.134  0.00  0.00   241     3.45    420     0.0  0.00   0.0   0.062   0.000   72.6    50   52.9   71.9   9.25  .0741    0.000   214    5    100.0   10 
10/20/19  4:40p   56.3   56.3   56.0    89   53.1  10.0   SSW   1.67  15.0     S   52.7   56.4   52.8   56.8  30.137  0.00  0.00   181     2.59    255     0.0  0.00   0.0   0.060   0.000   72.6    50   52.9   71.9   9.25  .0741    0.000   213    5    100.0   10 
10/20/19  4:50p   56.1   56.3   56.1    89   52.9   9.0   SSW   1.50  15.0     S   53.1   56.2   53.2   53.7  30.142  0.00  0.00    64     0.92     77     0.0  0.00   0.0   0.062   0.000   72.6    50   52.9   71.9   9.25  .0741    0.000   210    5    100.0   10 
10/20/19  5:00p   56.0   56.1   56.0    89   52.8   8.0   SSW   1.33  13.0   SSE   53.7   56.1   53.8   53.9  30.139  0.00  0.00    51     0.73     60     0.0  0.00   0.0   0.063   0.000   72.6    50   52.9   71.9   9.25  .0741    0.003   213    5    100.0   10 
10/20/19  5:10p   56.1   56.1   56.0    89   52.9   7.0   SSW   1.17  13.0     S   54.5   56.2   54.6   55.0  30.144  0.00  0.00    57     0.82     62     0.0  0.00   0.0   0.062   0.000   72.6    50   52.9   71.9   9.25  .0741    0.000   211    5    100.0   10 
10/20/19  5:20p   56.1   56.1   56.1    89   52.9   7.0   SSW   1.17  11.0   WSW   54.5   56.2   54.6   54.3  30.147  0.00  0.00    40     0.57     49     0.0  0.00   0.0   0.062   0.000   72.6    50   52.9   71.9   9.25  .0741    0.000   212    5    100.0   10 
Email: AdamSPAM@StormwatchersRetreat.com (To send me email remove the word 'SPAM' from my email address.)